Time;durP1;ratioP1;P1;durP2;ratioP2;P2;SDS_P1;SDS_P2;PMS_P1;PMS_P2;Temp;Humidity;BMP_temperature;BMP_pressure;BME280_temperature;BME280_humidity;BME280_pressure;Samples;Min_cycle;Max_cycle;Signal;HPM_P1;HPM_P2
2024/03/20 00:03:00;;;;;;;10.60;9.50;;;7.30;99.90;;;7.98;100.00;98239.88;10442511;28;20306;-66
2024/03/20 00:08:05;;;;;;;10.00;9.10;;;7.40;99.90;;;7.94;100.00;98236.22;10445942;28;20308;-69
2024/03/20 00:13:08;;;;;;;10.57;9.53;;;7.40;99.90;;;7.94;100.00;98233.66;10442283;28;20671;-66
2024/03/20 00:18:14;;;;;;;9.27;8.43;;;7.30;99.90;;;7.93;100.00;98228.50;10459102;28;21702;-66
2024/03/20 00:23:17;;;;;;;10.37;9.33;;;7.30;99.90;;;7.90;100.00;98232.56;10443558;28;20375;-64
2024/03/20 00:28:19;;;;;;;9.97;9.07;;;7.30;99.90;;;7.82;100.00;98222.59;10437487;28;20315;-66
2024/03/20 00:33:22;;;;;;;10.13;8.73;;;7.20;99.90;;;7.76;100.00;98223.03;10445727;28;20320;-64
2024/03/20 00:38:25;;;;;;;9.03;8.13;;;7.10;99.90;;;7.62;100.00;98211.84;10437027;28;20304;-64
2024/03/20 00:43:27;;;;;;;8.67;7.87;;;7.00;99.90;;;7.48;100.00;98204.84;10433519;28;20236;-64
2024/03/20 00:48:30;;;;;;;8.77;8.07;;;6.90;99.90;;;7.42;100.00;98209.47;10437077;28;20660;-64
2024/03/20 00:53:33;;;;;;;8.20;7.50;;;6.80;99.90;;;7.38;100.00;98208.38;10445629;28;20311;-64
2024/03/20 00:58:35;;;;;;;10.03;8.67;;;6.80;99.90;;;7.37;100.00;98200.63;10442890;28;20339;-64
2024/03/20 01:03:38;;;;;;;8.77;8.07;;;6.80;99.90;;;7.37;100.00;98201.50;10456830;28;20331;-64
2024/03/20 01:08:43;;;;;;;8.93;8.20;;;6.80;99.90;;;7.37;100.00;98195.53;10443298;28;20315;-63
2024/03/20 01:13:45;;;;;;;8.30;7.50;;;6.80;99.90;;;7.37;100.00;98185.34;10453443;28;20315;-66
2024/03/20 01:18:47;;;;;;;9.40;8.50;;;6.70;99.90;;;7.10;100.00;98184.19;10450227;28;20315;-66
2024/03/20 01:23:51;;;;;;;8.03;7.23;;;6.50;99.90;;;7.14;100.00;98181.97;10453078;28;20341;-66
2024/03/20 01:28:53;;;;;;;8.40;7.60;;;6.50;99.90;;;7.17;100.00;98182.19;10447055;28;20319;-64
2024/03/20 01:33:55;;;;;;;7.80;7.07;;;6.50;99.90;;;7.08;100.00;98184.06;10435088;28;20332;-63
2024/03/20 01:38:58;;;;;;;8.20;7.40;;;6.50;99.90;;;7.09;100.00;98182.41;10438094;28;20315;-63
2024/03/20 01:44:01;;;;;;;9.70;8.53;;;6.50;99.90;;;7.14;100.00;98171.81;10439695;28;20315;-64
2024/03/20 01:49:05;;;;;;;8.87;8.03;;;6.50;99.90;;;7.02;100.00;98170.00;10437201;28;20312;-64
2024/03/20 01:54:10;;;;;;;9.63;7.80;;;6.40;99.90;;;6.93;100.00;98180.38;10449595;28;20315;-64
2024/03/20 01:59:12;;;;;;;8.93;8.03;;;6.30;99.90;;;6.93;100.00;98168.53;10443805;28;20645;-64
2024/03/20 02:04:15;;;;;;;8.60;7.90;;;6.30;99.90;;;6.79;100.00;98170.81;10439761;28;20774;-64
2024/03/20 02:09:18;;;;;;;8.70;7.90;;;6.20;99.90;;;6.61;100.00;98168.63;10436753;28;20312;-63
2024/03/20 02:14:20;;;;;;;8.90;8.00;;;6.10;99.90;;;6.65;100.00;98169.75;10445898;28;20402;-63
2024/03/20 02:19:22;;;;;;;8.77;7.87;;;6.00;99.90;;;6.58;100.00;98170.94;10438764;28;20316;-66
2024/03/20 02:24:27;;;;;;;8.00;7.27;;;6.00;99.90;;;6.36;100.00;98175.09;10448598;28;20331;-66
2024/03/20 02:29:29;;;;;;;8.53;7.23;;;5.90;99.90;;;6.42;100.00;98178.13;10432499;28;20303;-66
2024/03/20 02:34:32;;;;;;;9.20;8.00;;;5.80;99.90;;;6.48;100.00;98178.59;10433853;28;20228;-66
2024/03/20 02:39:35;;;;;;;8.93;8.03;;;5.90;99.90;;;6.49;100.00;98185.44;10437544;28;20738;-65
2024/03/20 02:44:37;;;;;;;9.80;8.80;;;5.90;99.90;;;6.41;100.00;98182.31;10440039;28;20331;-66
2024/03/20 02:49:40;;;;;;;9.17;8.17;;;5.80;99.90;;;6.47;100.00;98179.38;10441176;28;20319;-66
2024/03/20 02:54:43;;;;;;;7.83;7.13;;;5.80;99.90;;;6.45;100.00;98178.34;10440305;28;20900;-66
2024/03/20 02:59:45;;;;;;;8.00;7.30;;;5.80;99.90;;;6.43;100.00;98179.88;10437238;28;20315;-65
2024/03/20 03:04:47;;;;;;;8.10;7.40;;;5.70;99.90;;;6.27;100.00;98178.69;10427071;28;20320;-66
2024/03/20 03:09:51;;;;;;;7.80;7.10;;;5.70;99.90;;;6.19;100.00;98176.31;10438018;28;20563;-67
2024/03/20 03:14:53;;;;;;;6.97;6.37;;;5.60;99.90;;;6.08;100.00;98183.94;10445768;28;20304;-65
2024/03/20 03:19:55;;;;;;;6.83;6.23;;;5.40;99.90;;;6.12;100.00;98187.59;10437477;28;20316;-67
2024/03/20 03:24:59;;;;;;;7.53;6.87;;;5.50;99.90;;;6.05;100.00;98180.28;10437189;28;20319;-66
2024/03/20 03:30:01;;;;;;;8.60;7.70;;;5.40;99.90;;;6.00;100.00;98186.66;10439871;28;20316;-67
2024/03/20 03:35:04;;;;;;;9.00;8.20;;;5.40;99.90;;;5.91;100.00;98184.22;10435985;28;20232;-67
2024/03/20 03:40:10;;;;;;;8.57;7.83;;;5.30;99.90;;;5.90;100.00;98179.06;10442557;28;20328;-65
2024/03/20 03:45:13;;;;;;;8.50;7.80;;;5.30;99.90;;;5.83;100.00;98193.75;10448737;28;20351;-65
2024/03/20 03:50:16;;;;;;;9.57;8.70;;;5.20;99.90;;;5.88;100.00;98186.53;10440337;28;20803;-65
2024/03/20 03:55:19;;;;;;;8.93;8.20;;;5.30;99.90;;;5.90;100.00;98196.81;10432458;28;20729;-65
2024/03/20 04:00:23;;;;;;;8.00;7.13;;;5.30;99.90;;;5.88;100.00;98202.63;10447889;28;20311;-67
2024/03/20 04:05:26;;;;;;;7.60;7.00;;;5.30;99.90;;;5.86;100.00;98204.13;10441550;28;20307;-66
2024/03/20 04:10:29;;;;;;;7.43;6.83;;;5.30;99.90;;;5.86;100.00;98201.59;10446131;28;20303;-67
2024/03/20 04:15:32;;;;;;;8.67;7.97;;;5.20;99.90;;;5.73;100.00;98198.84;10442176;28;20314;-68
2024/03/20 04:20:34;;;;;;;7.10;6.50;;;5.10;99.90;;;5.74;100.00;98204.81;10442065;28;20715;-65
2024/03/20 04:25:39;;;;;;;8.70;7.60;;;5.10;99.90;;;5.57;100.00;98205.97;10445714;28;20741;-67
2024/03/20 04:30:41;;;;;;;7.27;6.57;;;5.00;99.90;;;5.47;100.00;98198.41;10456121;28;20718;-66
2024/03/20 04:35:43;;;;;;;8.37;7.53;;;4.90;99.90;;;5.53;100.00;98198.88;10442237;28;20322;-68
2024/03/20 04:40:47;;;;;;;8.43;7.73;;;4.90;99.90;;;5.55;100.00;98204.94;10452366;28;20828;-64
2024/03/20 04:45:49;;;;;;;7.93;7.13;;;5.00;99.90;;;5.54;100.00;98198.13;10459671;28;20315;-68
2024/03/20 04:50:51;;;;;;;8.13;7.33;;;4.90;99.90;;;5.45;100.00;98192.31;10441126;28;20239;-66
2024/03/20 04:55:55;;;;;;;8.87;8.07;;;4.80;99.90;;;5.43;100.00;98190.50;10440410;28;20330;-65
2024/03/20 05:00:57;;;;;;;7.63;6.77;;;4.90;99.90;;;5.54;100.00;98199.00;10448895;28;20320;-65
2024/03/20 05:05:59;;;;;;;6.57;6.03;;;4.80;99.90;;;5.37;100.00;98200.16;10439822;28;20319;-66
2024/03/20 05:11:02;;;;;;;7.20;6.50;;;4.60;99.90;;;5.34;100.00;98204.97;10442711;28;20320;-66
2024/03/20 05:16:08;;;;;;;7.60;7.00;;;4.70;99.90;;;5.25;100.00;98208.41;10439121;28;20303;-66
2024/03/20 05:21:10;;;;;;;8.30;7.63;;;4.70;99.90;;;5.31;100.00;98209.78;10444737;28;20366;-65
2024/03/20 05:26:16;;;;;;;9.03;7.60;;;4.70;99.90;;;5.38;100.00;98212.09;10432470;28;21039;-65
2024/03/20 05:31:27;;;;;;;8.13;7.43;;;4.70;99.90;;;5.40;100.00;98209.66;10441160;28;20315;-64
2024/03/20 05:36:30;;;;;;;9.30;8.40;;;4.80;99.90;;;5.49;100.00;98219.66;10443551;28;20320;-67
2024/03/20 05:41:33;;;;;;;8.17;7.37;;;4.80;99.90;;;5.38;100.00;98221.34;10450103;28;20685;-66
2024/03/20 05:46:35;;;;;;;9.07;7.83;;;4.80;99.90;;;5.45;100.00;98217.66;10460527;28;20803;-65
2024/03/20 05:51:37;;;;;;;7.27;6.67;;;4.80;99.90;;;5.51;100.00;98219.03;10455165;28;20260;-65
2024/03/20 05:56:41;;;;;;;7.63;6.90;;;4.80;99.90;;;5.64;100.00;98214.22;10452972;28;20775;-64
2024/03/20 06:01:43;;;;;;;7.83;7.13;;;5.00;99.90;;;5.79;100.00;98217.09;10424406;22;20308;-67
2024/03/20 06:06:46;;;;;;;7.90;6.47;;;5.10;99.90;;;6.06;100.00;98222.66;10409370;28;20249;-67
2024/03/20 06:11:49;;;;;;;7.30;6.60;;;5.30;99.90;;;6.14;100.00;98226.69;10375775;28;20242;-67
2024/03/20 06:16:51;;;;;;;6.83;6.20;;;5.40;99.90;;;6.21;100.00;98228.06;10348985;28;20243;-67
2024/03/20 06:21:53;;;;;;;7.30;6.73;;;5.40;99.90;;;6.45;100.00;98231.66;10348745;28;20268;-68
2024/03/20 06:26:57;;;;;;;8.07;7.40;;;5.70;99.90;;;6.66;100.00;98230.78;10364782;28;20670;-68
2024/03/20 06:32:00;;;;;;;7.97;7.17;;;5.80;99.90;;;7.08;100.00;98234.00;10352389;28;20342;-67
2024/03/20 06:37:02;;;;;;;8.30;7.50;;;6.10;99.90;;;7.14;100.00;98235.34;10370432;28;20985;-68
2024/03/20 06:42:16;;;;;;;8.37;7.57;;;6.20;99.90;;;7.38;100.00;98228.72;10370379;28;20260;-68
2024/03/20 06:47:19;;;;;;;8.27;7.57;;;6.40;99.90;;;8.10;98.42;98239.13;10352532;28;20731;-68
2024/03/20 06:52:22;;;;;;;7.97;7.27;;;6.90;99.90;;;8.42;95.64;98235.47;10363067;28;20270;-67
2024/03/20 06:57:26;;;;;;;7.05;6.35;;;7.30;99.90;;;9.26;91.97;98240.47;10349395;28;20680;-67
2024/03/20 07:02:28;;;;;;;6.55;5.88;;;7.60;99.90;;;10.31;83.44;98241.50;10360986;28;20272;-65
2024/03/20 07:07:30;;;;;;;7.22;6.53;;;8.50;99.90;;;10.88;83.10;98241.63;10352224;28;20981;-67
2024/03/20 07:12:34;;;;;;;6.90;6.05;;;9.00;99.90;;;11.35;78.04;98241.09;10364619;28;20272;-68
2024/03/20 07:17:37;;;;;;;6.90;6.30;;;9.50;99.90;;;11.20;80.28;98239.38;10348551;28;20276;-67
2024/03/20 07:22:39;;;;;;;7.75;7.05;;;9.60;99.90;;;11.16;78.88;98237.44;10349158;28;20710;-67
2024/03/20 07:27:43;;;;;;;7.10;6.40;;;9.90;99.90;;;11.50;79.87;98234.31;10346000;28;20262;-67
2024/03/20 07:32:45;;;;;;;7.10;6.50;;;10.20;99.90;;;11.72;77.70;98241.59;10360890;28;20285;-67
2024/03/20 07:37:48;;;;;;;6.05;5.65;;;10.40;99.90;;;11.88;79.05;98248.53;10363489;28;20245;-67
2024/03/20 07:42:51;;;;;;;6.15;5.65;;;10.70;99.90;;;12.20;77.45;98252.06;10360520;28;20252;-67
2024/03/20 07:47:54;;;;;;;6.30;5.70;;;10.90;99.90;;;12.24;77.54;98246.28;10366414;28;20254;-66
2024/03/20 07:52:56;;;;;;;6.93;6.32;;;11.10;99.90;;;12.41;76.89;98240.44;10356250;28;20242;-66
2024/03/20 07:58:00;;;;;;;6.50;5.90;;;11.10;99.90;;;12.51;78.28;98247.84;10371607;28;20645;-66
2024/03/20 08:03:02;;;;;;;6.55;5.93;;;11.40;99.90;;;12.82;76.91;98244.44;10367569;28;20262;-66
2024/03/20 08:08:05;;;;;;;5.97;5.40;;;11.90;99.90;;;13.13;76.10;98240.91;10370202;28;20226;-67
2024/03/20 08:13:10;;;;;;;6.40;5.90;;;12.30;99.90;;;13.45;75.73;98240.09;10360235;28;20254;-66
2024/03/20 08:18:12;;;;;;;6.15;5.65;;;12.70;99.90;;;14.04;74.13;98238.78;10351501;28;20246;-66
2024/03/20 08:23:15;;;;;;;5.70;5.30;;;13.40;99.90;;;14.22;73.21;98228.50;10362326;28;20237;-67
2024/03/20 08:28:18;;;;;;;6.47;5.78;;;13.40;99.90;;;14.59;71.71;98241.47;10357625;28;20253;-66
2024/03/20 08:33:22;;;;;;;6.68;5.70;;;13.90;99.90;;;14.80;72.34;98223.59;10358311;28;20318;-66
2024/03/20 08:38:25;;;;;;;6.00;5.32;;;14.10;99.90;;;15.30;71.01;98230.16;10351261;28;20300;-67
2024/03/20 08:43:28;;;;;;;6.22;5.72;;;14.60;99.90;;;15.62;70.35;98228.97;10370610;28;20254;-66
2024/03/20 08:48:30;;;;;;;6.10;5.50;;;14.90;99.90;;;16.09;67.38;98222.41;10360719;28;20272;-67
2024/03/20 08:53:33;;;;;;;6.05;5.53;;;15.50;99.90;;;16.27;66.80;98226.56;10372743;28;20238;-67
2024/03/20 08:58:37;;;;;;;6.78;6.22;;;15.70;99.90;;;16.64;65.12;98218.56;10358083;28;20714;-66
2024/03/20 09:03:39;;;;;;;5.80;5.30;;;16.10;99.90;;;16.78;64.42;98225.19;10358001;28;20262;-66
2024/03/20 09:08:42;;;;;;;4.93;4.43;;;16.30;99.90;;;17.14;60.72;98217.09;10365797;28;20773;-66
2024/03/20 09:13:45;;;;;;;3.97;3.58;;;16.70;99.90;;;17.31;57.05;98209.91;10366819;28;20254;-66
2024/03/20 09:18:47;;;;;;;4.03;3.63;;;16.80;99.90;;;17.59;55.67;98210.91;10366493;28;20257;-66
2024/03/20 09:23:49;;;;;;;4.50;3.65;;;17.00;99.90;;;17.54;54.02;98208.16;10355817;28;20277;-66
2024/03/20 09:28:53;;;;;;;4.85;3.50;;;17.10;99.90;;;17.63;52.39;98205.91;10366150;28;20646;-66
2024/03/20 09:33:55;;;;;;;3.30;3.03;;;17.10;99.90;;;17.68;54.04;98196.59;10351676;28;20734;-66
2024/03/20 09:38:57;;;;;;;3.60;3.30;;;17.20;99.90;;;17.87;50.51;98200.72;10352266;28;20281;-66
2024/03/20 09:44:01;;;;;;;3.40;3.10;;;17.40;98.50;;;17.78;50.77;98196.13;10353884;28;20714;-66
2024/03/20 09:49:04;;;;;;;3.83;3.35;;;17.30;98.80;;;18.18;47.29;98197.44;10349396;28;20826;-66
2024/03/20 09:54:06;;;;;;;4.25;3.42;;;17.70;95.10;;;18.33;48.91;98189.28;10350789;28;20257;-67
2024/03/20 09:59:10;;;;;;;2.88;2.67;;;17.90;96.50;;;18.20;47.71;98187.16;10365350;28;20511;-66
2024/03/20 10:04:12;;;;;;;3.65;3.35;;;17.80;95.10;;;18.60;46.41;98193.56;10348676;28;20325;-67
2024/03/20 10:09:16;;;;;;;3.38;3.08;;;18.20;94.20;;;18.65;47.17;98177.34;10349704;28;20250;-66
2024/03/20 10:14:19;;;;;;;2.80;2.60;;;18.20;94.70;;;18.97;45.41;98173.97;10349184;28;20717;-66
2024/03/20 10:19:25;;;;;;;2.67;2.47;;;18.60;92.60;;;18.90;47.00;98176.41;10354949;28;20760;-66
2024/03/20 10:24:27;;;;;;;2.85;2.65;;;18.50;93.20;;;18.95;45.38;98167.91;10353490;28;20246;-66
2024/03/20 10:29:35;;;;;;;2.70;2.50;;;18.50;92.50;;;19.44;44.36;98161.47;10364105;28;20280;-66
2024/03/20 10:34:38;;;;;;;2.60;2.40;;;19.00;91.80;;;19.28;44.61;98171.41;10361854;28;20241;-66
2024/03/20 10:39:42;;;;;;;3.00;2.80;;;18.70;91.80;;;19.08;45.00;98172.56;10353093;28;20326;-66
2024/03/20 10:44:46;;;;;;;4.28;2.85;;;18.50;92.40;;;19.09;42.83;98164.00;10363107;28;20250;-66
2024/03/20 10:49:49;;;;;;;2.42;2.20;;;18.60;90.10;;;18.90;45.43;98158.25;10355095;28;20254;-66
2024/03/20 10:54:52;;;;;;;2.45;2.25;;;18.30;92.60;;;18.79;45.28;98164.84;10356615;28;20635;-66
2024/03/20 10:59:57;;;;;;;2.08;1.88;;;18.20;92.10;;;19.31;42.84;98160.25;10344645;28;20258;-66
2024/03/20 11:05:00;;;;;;;2.10;1.90;;;18.60;89.60;;;19.67;39.25;98154.34;10351246;28;20257;-66
2024/03/20 11:10:20;;;;;;;2.38;2.17;;;18.90;83.30;;;19.57;41.14;98155.78;10361886;28;20258;-65
2024/03/20 11:15:28;;;;;;;1.80;1.70;;;18.90;85.70;;;19.45;41.48;98158.91;10353983;28;20694;-64
2024/03/20 11:20:45;;;;;;;2.00;1.90;;;18.70;87.40;;;19.48;41.33;98158.13;10369936;28;20310;-64
2024/03/20 11:25:47;;;;;;;1.63;1.52;;;18.80;86.50;;;19.71;41.06;98146.66;10358763;28;20682;-64
2024/03/20 11:30:51;;;;;;;1.85;1.45;;;19.10;85.50;;;19.97;39.74;98144.75;10358587;28;20308;-64
2024/03/20 11:35:54;;;;;;;1.88;1.77;;;19.20;83.80;;;19.80;40.86;98148.63;10371046;28;20713;-66
2024/03/20 11:40:58;;;;;;;2.13;1.92;;;19.10;86.40;;;19.90;40.05;98139.34;10364089;28;20250;-65
2024/03/20 11:46:02;;;;;;;1.83;1.52;;;19.10;83.40;;;20.00;40.70;98137.03;10359719;28;20253;-65
2024/03/20 11:51:05;;;;;;;1.80;1.70;;;19.20;84.90;;;20.05;38.78;98134.53;10365769;28;22359;-65
2024/03/20 11:56:07;;;;;;;1.70;1.60;;;19.30;80.80;;;20.11;39.55;98136.41;10357242;28;20305;-65
2024/03/20 12:01:13;;;;;;;1.98;1.85;;;19.30;82.40;;;19.97;37.95;98134.38;10377093;22;20229;-63
2024/03/20 12:06:17;;;;;;;1.92;1.83;;;19.20;79.40;;;20.07;38.27;98142.38;10443592;28;20248;-63
2024/03/20 12:11:25;;;;;;;1.60;1.50;;;19.30;79.90;;;19.92;38.18;98137.69;10427024;28;20305;-64
2024/03/20 12:16:29;;;;;;;1.88;1.75;;;19.20;78.60;;;20.07;38.62;98144.97;10450117;28;20244;-64
2024/03/20 12:21:33;;;;;;;1.80;1.70;;;19.30;79.90;;;19.95;39.99;98140.34;10440665;28;20247;-64
2024/03/20 12:26:35;;;;;;;1.92;1.83;;;19.10;82.00;;;19.93;40.48;98142.03;10480739;28;20297;-63
2024/03/20 12:31:40;;;;;;;2.10;1.90;;;19.20;84.60;;;19.73;39.66;98139.81;10449118;28;20727;-63
2024/03/20 12:36:43;;;;;;;2.38;1.88;;;19.00;82.00;;;19.88;39.73;98130.66;10486346;28;20252;-64
2024/03/20 12:41:45;;;;;;;2.75;1.92;;;18.90;82.50;;;19.79;39.10;98126.13;10488007;28;20325;-64
2024/03/20 12:46:48;;;;;;;2.08;1.98;;;18.90;80.70;;;19.80;38.52;98125.25;10459239;28;20677;-64
2024/03/20 12:51:51;;;;;;;2.60;1.98;;;19.00;79.40;;;19.25;39.21;98122.09;10423973;28;20308;-64
2024/03/20 12:56:53;;;;;;;2.38;1.80;;;18.70;80.00;;;19.35;39.65;98120.63;10448432;28;21144;-64
2024/03/20 13:01:58;;;;;;;1.98;1.88;;;18.70;80.90;;;19.77;38.66;98105.34;10483999;28;20254;-63
2024/03/20 13:07:00;;;;;;;1.90;1.80;;;19.00;79.90;;;19.70;38.81;98097.34;10480793;28;20297;-64
2024/03/20 13:12:02;;;;;;;1.83;1.73;;;18.90;79.70;;;19.48;39.88;98101.09;10468315;28;20726;-63
2024/03/20 13:17:06;;;;;;;2.28;2.08;;;18.80;81.90;;;19.82;39.23;98107.16;10457224;28;20254;-63
2024/03/20 13:22:17;;;;;;;2.10;1.92;;;19.00;81.40;;;20.21;38.62;98097.72;10451554;28;20721;-64
2024/03/20 13:27:20;;;;;;;1.70;1.60;;;19.40;81.10;;;20.23;38.16;98105.53;10454269;28;20240;-63
2024/03/20 13:32:30;;;;;;;2.00;1.80;;;19.50;78.20;;;20.21;38.30;98102.03;10471432;28;20694;-64
2024/03/20 13:37:33;;;;;;;2.17;1.98;;;19.40;79.20;;;19.87;39.42;98102.97;10476153;28;21686;-64
2024/03/20 13:42:47;;;;;;;1.85;1.63;;;19.10;80.00;;;19.73;39.46;98087.94;10467572;28;20303;-64
2024/03/20 13:47:51;;;;;;;1.70;1.60;;;18.90;80.70;;;19.73;39.11;98082.75;10479990;28;20320;-63
2024/03/20 13:52:53;;;;;;;2.17;1.98;;;19.00;79.40;;;20.03;38.20;98084.34;10483926;28;20312;-63
2024/03/20 13:57:55;;;;;;;1.80;1.70;;;19.10;79.10;;;19.77;39.74;98089.78;10468278;28;20252;-62
2024/03/20 14:02:58;;;;;;;1.80;1.70;;;19.10;81.20;;;19.80;39.23;98079.47;10480739;28;20644;-64
2024/03/20 14:08:01;;;;;;;2.08;1.88;;;18.90;81.00;;;19.77;38.84;98086.28;10450669;28;20308;-63
2024/03/20 14:13:03;;;;;;;1.58;1.48;;;18.90;79.40;;;19.54;40.19;98081.41;10483413;28;20278;-64
2024/03/20 14:18:09;;;;;;;1.90;1.80;;;18.70;81.20;;;19.41;40.30;98081.03;10457364;28;20259;-63
2024/03/20 14:23:12;;;;;;;2.08;1.85;;;18.60;81.50;;;19.52;40.62;98067.50;10452871;28;20705;-64
2024/03/20 14:28:14;;;;;;;1.88;1.77;;;18.70;82.10;;;19.31;39.60;98070.41;10454950;28;20258;-63
2024/03/20 14:33:17;;;;;;;1.70;1.55;;;18.60;80.00;;;19.53;41.32;98063.19;10455504;28;20259;-63
2024/03/20 14:38:35;;;;;;;2.10;1.90;;;18.70;84.00;;;20.06;40.05;98062.75;10484769;28;20248;-64
2024/03/20 14:43:37;;;;;;;1.90;1.80;;;19.30;81.90;;;19.90;40.12;98066.72;10476637;28;20747;-63
2024/03/20 14:48:43;;;;;;;2.10;1.90;;;19.10;81.40;;;19.93;39.44;98059.88;10445121;28;20306;-64
2024/03/20 14:53:46;;;;;;;2.78;1.90;;;19.10;80.70;;;19.77;40.87;98056.06;10469644;28;20263;-63
2024/03/20 14:58:51;;;;;;;3.33;2.30;;;18.90;83.40;;;19.75;40.73;98046.47;10474679;28;20244;-64
2024/03/20 15:03:55;;;;;;;2.42;2.10;;;18.80;83.10;;;19.90;40.62;98048.56;10478329;28;20335;-64
2024/03/20 15:08:57;;;;;;;2.47;2.10;;;18.90;83.10;;;19.63;40.53;98053.91;10460614;28;20703;-63
2024/03/20 15:14:00;;;;;;;1.98;1.80;;;18.80;82.60;;;19.47;41.29;98042.28;10479597;28;20251;-66
2024/03/20 15:19:03;;;;;;;2.35;2.15;;;18.60;84.70;;;19.39;41.54;98036.91;10465921;28;20271;-67
2024/03/20 15:24:07;;;;;;;2.33;1.73;;;18.50;83.70;;;19.56;40.12;98032.16;10471357;28;20315;-65
2024/03/20 15:29:11;;;;;;;3.42;1.73;;;18.60;82.40;;;19.29;41.83;98034.94;10478723;28;20255;-63
2024/03/20 15:34:15;;;;;;;1.63;1.50;;;18.50;87.20;;;19.18;41.11;98045.03;10480368;28;20282;-63
2024/03/20 15:39:21;;;;;;;2.00;1.90;;;18.30;83.20;;;18.97;40.83;98028.91;10439232;28;20307;-65
2024/03/20 15:44:23;;;;;;;1.83;1.38;;;18.20;82.50;;;18.80;41.20;98036.22;10463105;28;20312;-65
2024/03/20 15:49:28;;;;;;;1.88;1.55;;;18.10;83.00;;;18.79;42.16;98032.75;10480059;28;20313;-65
2024/03/20 15:54:30;;;;;;;2.15;1.98;;;18.00;84.90;;;18.98;41.89;98043.63;10474100;28;20321;-64
2024/03/20 15:59:33;;;;;;;2.03;1.92;;;18.00;85.00;;;19.19;40.88;98025.16;10445210;28;20256;-64
2024/03/20 16:04:37;;;;;;;1.80;1.70;;;18.20;83.80;;;18.93;41.61;98037.44;10469494;28;20251;-65
2024/03/20 16:09:39;;;;;;;2.15;1.50;;;18.00;84.10;;;18.66;42.00;98033.22;10478304;28;20375;-65
2024/03/20 16:14:42;;;;;;;2.22;2.00;;;17.70;84.20;;;18.42;42.75;98036.84;10477721;28;20319;-65
2024/03/20 16:19:49;;;;;;;2.13;1.65;;;17.50;86.90;;;18.39;43.79;98043.66;10453490;28;20276;-65
2024/03/20 16:24:52;;;;;;;3.08;1.70;;;17.40;88.90;;;18.23;45.17;98038.03;10478402;28;20651;-65
2024/03/20 16:29:55;;;;;;;1.98;1.88;;;17.30;91.00;;;18.12;45.51;98048.91;10457421;28;20824;-65
2024/03/20 16:34:58;;;;;;;3.30;2.13;;;17.20;90.70;;;18.10;46.85;98056.59;10441565;28;20253;-65
2024/03/20 16:40:01;;;;;;;1.80;1.70;;;17.20;92.90;;;17.84;48.36;98052.34;10445591;28;20777;-65
2024/03/20 16:45:04;;;;;;;2.05;1.83;;;16.90;94.40;;;17.59;50.07;98045.47;10470343;28;20311;-65
2024/03/20 16:50:10;;;;;;;2.60;2.40;;;16.60;96.20;;;17.47;51.50;98043.38;10442062;28;20249;-64
2024/03/20 16:55:12;;;;;;;2.47;2.28;;;16.50;97.50;;;17.45;53.06;98048.47;10459958;28;20956;-65
2024/03/20 17:00:17;;;;;;;2.83;2.63;;;16.50;99.30;;;17.25;54.78;98046.94;10469919;28;20311;-65
2024/03/20 17:05:22;;;;;;;4.30;3.90;;;16.30;99.90;;;16.95;58.06;98054.53;10457289;28;20819;-65
2024/03/20 17:10:24;;;;;;;5.70;5.30;;;16.00;99.90;;;16.67;59.39;98059.53;10462867;28;20323;-64
2024/03/20 17:15:27;;;;;;;4.90;4.60;;;15.70;99.90;;;16.31;60.60;98069.41;10466210;28;20350;-64
2024/03/20 17:20:31;;;;;;;3.15;2.85;;;15.30;99.90;;;15.99;61.58;98071.63;10455839;28;20829;-65
2024/03/20 17:25:34;;;;;;;3.00;2.80;;;14.90;99.90;;;15.73;62.75;98069.69;10454454;28;20252;-64
2024/03/20 17:30:36;;;;;;;27.05;24.85;;;14.80;99.90;;;15.50;63.79;98079.91;10442069;28;20243;-64
2024/03/20 17:35:40;;;;;;;6.82;6.32;;;14.50;99.90;;;15.28;64.46;98075.56;10470885;28;20286;-64
2024/03/20 17:40:42;;;;;;;3.83;3.60;;;14.40;99.90;;;15.13;66.12;98087.78;10479621;28;20252;-65
2024/03/20 17:45:44;;;;;;;3.50;2.17;;;14.20;99.90;;;14.85;68.20;98096.91;10483851;28;20264;-65
2024/03/20 17:50:48;;;;;;;2.60;2.42;;;13.90;99.90;;;14.62;68.72;98087.25;10471563;28;20770;-64
2024/03/20 17:55:52;;;;;;;2.88;2.67;;;13.60;99.90;;;14.44;69.12;98087.28;10483799;28;20717;-65
2024/03/20 18:00:55;;;;;;;3.65;3.40;;;13.50;99.90;;;14.19;70.77;98100.69;10469232;28;20247;-64
2024/03/20 18:05:59;;;;;;;3.97;3.72;;;13.20;99.90;;;13.98;71.16;98096.31;10411594;22;20972;-68
2024/03/20 18:11:01;;;;;;;5.10;4.70;;;13.10;99.90;;;13.86;70.21;98089.72;10407474;28;20352;-68
2024/03/20 18:16:05;;;;;;;8.00;4.43;;;13.00;99.90;;;13.72;71.74;98107.91;10371580;28;20328;-67
2024/03/20 18:21:10;;;;;;;5.47;4.32;;;12.80;99.90;;;13.66;72.46;98101.59;10372841;28;20311;-66
2024/03/20 18:26:12;;;;;;;4.35;3.67;;;12.80;99.90;;;13.60;73.19;98109.88;10373075;28;20376;-67
2024/03/20 18:31:14;;;;;;;3.83;3.53;;;12.70;99.90;;;13.44;74.19;98110.78;10395972;28;20755;-66
2024/03/20 18:36:18;;;;;;;2.83;2.63;;;12.60;99.90;;;13.38;74.87;98110.50;10388537;28;20257;-69
2024/03/20 18:41:20;;;;;;;3.47;3.20;;;12.50;99.90;;;13.32;74.39;98119.59;10385069;28;20672;-69
2024/03/20 18:46:22;;;;;;;4.55;3.15;;;12.40;99.90;;;13.09;76.38;98116.69;10383565;28;20320;-67
2024/03/20 18:51:25;;;;;;;3.03;2.83;;;12.20;99.90;;;12.91;75.89;98113.19;10387814;28;20308;-66
2024/03/20 18:56:27;;;;;;;4.28;3.88;;;12.00;99.90;;;12.78;76.62;98115.09;10393224;28;20673;-67
2024/03/20 19:01:30;;;;;;;4.00;3.70;;;11.90;99.90;;;12.67;76.04;98126.47;10381081;28;20308;-68
2024/03/20 19:06:33;;;;;;;3.63;3.08;;;11.80;99.90;;;12.50;76.31;98120.44;10384389;28;20668;-67
2024/03/20 19:11:38;;;;;;;3.67;3.38;;;11.60;99.90;;;12.37;77.52;98123.16;10377376;28;20321;-68
2024/03/20 19:16:40;;;;;;;4.07;3.47;;;11.40;99.90;;;12.13;78.03;98126.16;10386384;28;20308;-68
2024/03/20 19:21:43;;;;;;;4.43;4.03;;;11.20;99.90;;;11.98;78.78;98127.84;10388625;28;20435;-68
2024/03/20 19:26:45;;;;;;;4.18;3.88;;;11.10;99.90;;;11.87;78.35;98129.81;10385614;28;20499;-68
2024/03/20 19:31:48;;;;;;;3.70;3.40;;;11.10;99.90;;;11.81;78.42;98134.56;10390588;28;21159;-68
2024/03/20 19:36:51;;;;;;;4.32;3.92;;;11.00;99.90;;;11.71;79.21;98139.97;10390862;28;20317;-68
2024/03/20 19:41:53;;;;;;;3.95;3.65;;;10.90;99.90;;;11.75;79.61;98141.00;10408554;28;20317;-68
2024/03/20 19:46:55;;;;;;;6.35;3.60;;;10.90;99.90;;;11.62;82.13;98149.69;10391851;28;20312;-68
2024/03/20 19:51:59;;;;;;;4.22;3.65;;;10.80;99.90;;;11.48;83.04;98164.25;10394267;28;20320;-68
2024/03/20 19:57:01;;;;;;;4.90;4.50;;;10.70;99.90;;;11.34;84.01;98168.53;10391346;28;20306;-67
2024/03/20 20:02:05;;;;;;;5.22;4.72;;;10.50;99.90;;;11.22;83.30;98158.47;10402545;28;21054;-69
2024/03/20 20:07:08;;;;;;;4.55;4.15;;;10.40;99.90;;;11.18;84.16;98159.06;10392580;28;20348;-67
2024/03/20 20:12:11;;;;;;;4.13;3.83;;;10.40;99.90;;;11.05;84.81;98159.16;10393085;28;20412;-67
2024/03/20 20:17:13;;;;;;;9.93;7.40;;;10.40;99.90;;;11.05;85.03;98164.25;10392359;28;20332;-67
2024/03/20 20:22:19;;;;;;;4.55;4.20;;;10.30;99.90;;;10.97;85.08;98168.91;10389040;28;20344;-67
2024/03/20 20:27:21;;;;;;;5.60;5.10;;;10.30;99.90;;;10.86;85.68;98167.38;10370011;28;20230;-67
2024/03/20 20:32:23;;;;;;;5.70;5.20;;;10.20;99.90;;;11.01;85.64;98173.41;10384496;28;20622;-67
2024/03/20 20:37:26;;;;;;;5.47;4.95;;;10.20;99.90;;;10.95;87.08;98180.72;10369550;28;20359;-67
2024/03/20 20:42:29;;;;;;;5.30;4.72;;;10.10;99.90;;;10.86;87.76;98176.72;10370617;28;20313;-67
2024/03/20 20:47:31;;;;;;;5.47;4.97;;;10.00;99.90;;;10.68;88.22;98171.38;10366588;28;20316;-67
2024/03/20 20:52:35;;;;;;;7.13;5.40;;;9.80;99.90;;;10.62;88.61;98178.69;10372805;28;20220;-67
2024/03/20 20:57:38;;;;;;;6.90;6.40;;;9.80;99.90;;;10.37;90.52;98172.91;10368072;28;20942;-67
2024/03/20 21:24:15;;;;;;;5.50;5.00;;;9.40;99.90;;;10.14;90.64;98193.53;10367165;28;20972;-69
2024/03/20 21:29:17;;;;;;;4.88;4.40;;;9.30;99.90;;;10.05;90.74;98192.94;10361126;28;20220;-67